Time;durP1;ratioP1;P1;durP2;ratioP2;P2;SDS_P1;SDS_P2;PMS_P1;PMS_P2;Temp;Humidity;BMP_temperature;BMP_pressure;BME280_temperature;BME280_humidity;BME280_pressure;Samples;Min_cycle;Max_cycle;Signal;HPM_P1;HPM_P2
2023/04/02 00:00:56;;;;;;;6.80;4.60;;;11.50;99.90;;;;;;5014834;28;20183;-73
2023/04/02 00:03:44;;;;;;;7.45;4.75;;;11.50;99.90;;;;;;5005080;28;20045;-77
2023/04/02 00:06:32;;;;;;;9.00;4.60;;;11.30;99.90;;;;;;5003759;28;20069;-77
2023/04/02 00:09:16;;;;;;;6.38;4.63;;;11.20;99.90;;;;;;5022413;28;20515;-74
2023/04/02 00:11:53;;;;;;;5.78;4.25;;;11.20;99.90;;;;;;4999034;28;20038;-74
2023/04/02 00:14:32;;;;;;;7.15;4.88;;;10.80;99.90;;;;;;5017694;28;20385;-73
2023/04/02 00:17:03;;;;;;;6.15;4.80;;;10.60;99.90;;;;;;5017612;28;20400;-75
2023/04/02 00:19:50;;;;;;;7.00;5.00;;;10.90;99.90;;;;;;5024096;28;20041;-75
2023/04/02 00:22:21;;;;;;;6.45;4.55;;;11.20;99.90;;;;;;5016743;28;20571;-74
2023/04/02 00:24:52;;;;;;;;;;;11.30;99.90;;;;;;5019002;28;20096;-73
2023/04/02 00:27:20;;;;;;;8.25;4.70;;;11.20;99.90;;;;;;5020884;28;20024;-76
2023/04/02 00:29:49;;;;;;;5.90;4.45;;;11.30;99.90;;;;;;5020301;28;20494;-76
2023/04/02 00:32:23;;;;;;;5.43;4.40;;;11.40;99.90;;;;;;5016452;23;20076;-75
2023/04/02 00:34:51;;;;;;;8.20;5.07;;;11.30;99.90;;;;;;5013105;28;20048;-73
2023/04/02 00:37:23;;;;;;;6.35;4.70;;;11.20;99.90;;;;;;5015321;28;20110;-75
2023/04/02 00:40:06;;;;;;;6.97;4.40;;;11.30;99.90;;;;;;5006534;28;20051;-76
2023/04/02 00:42:39;;;;;;;6.00;4.60;;;11.10;99.90;;;;;;5021853;28;20044;-76
2023/04/02 00:45:30;;;;;;;6.93;4.93;;;11.00;99.90;;;;;;5031762;28;20044;-78
2023/04/02 00:48:22;;;;;;;8.37;5.20;;;11.00;99.90;;;;;;5018801;28;20079;-74
2023/04/02 00:50:52;;;;;;;6.93;5.20;;;10.90;99.90;;;;;;5028770;28;20599;-75
2023/04/02 00:53:25;;;;;;;8.10;4.97;;;10.80;99.90;;;;;;5029174;28;20053;-74
2023/04/02 00:55:53;;;;;;;6.25;4.80;;;10.80;99.90;;;;;;5029098;28;20045;-76
2023/04/02 00:58:32;;;;;;;9.98;6.55;;;10.80;99.90;;;;;;5008805;28;20416;-74
2023/04/02 01:01:00;;;;;;;7.22;5.22;;;10.70;99.90;;;;;;5009007;28;20103;-77
2023/04/02 01:03:33;;;;;;;7.30;4.85;;;10.60;99.90;;;;;;5002511;28;20073;-76
2023/04/02 01:06:09;;;;;;;8.40;4.93;;;10.50;99.90;;;;;;5017782;28;20052;-76
2023/04/02 01:09:04;;;;;;;9.23;5.05;;;10.30;99.90;;;;;;5011470;28;20095;-74
2023/04/02 01:11:50;;;;;;;8.15;5.53;;;10.20;99.90;;;;;;5023792;28;20038;-74
2023/04/02 01:14:45;;;;;;;12.95;5.90;;;10.20;99.90;;;;;;5031844;28;20054;-75
2023/04/02 01:17:33;;;;;;;7.32;5.32;;;10.30;99.90;;;;;;5010406;28;20038;-73
2023/04/02 01:20:22;;;;;;;7.07;5.30;;;10.20;99.90;;;;;;5029026;28;20045;-73
2023/04/02 01:22:53;;;;;;;6.82;4.95;;;10.20;99.90;;;;;;5025357;28;20038;-74
2023/04/02 01:25:37;;;;;;;7.35;5.38;;;10.10;99.90;;;;;;5029298;28;20056;-74
2023/04/02 01:28:18;;;;;;;7.15;5.40;;;10.10;99.90;;;;;;5011221;28;20428;-72
2023/04/02 01:30:51;;;;;;;;;;;10.10;99.90;;;;;;5026099;28;20049;-75
2023/04/02 01:33:27;;;;;;;7.32;5.10;;;10.30;99.90;;;;;;5034028;23;20662;-75
2023/04/02 01:36:30;;;;;;;8.50;5.20;;;10.30;99.90;;;;;;5043295;28;20103;-75
2023/04/02 01:39:22;;;;;;;7.97;5.70;;;10.30;99.90;;;;;;4992480;28;20049;-74
2023/04/02 01:42:05;;;;;;;7.28;5.60;;;10.20;99.90;;;;;;5038176;28;20048;-72
2023/04/02 01:44:48;;;;;;;7.53;5.45;;;10.10;99.90;;;;;;5039292;28;20081;-74
2023/04/02 01:47:27;;;;;;;10.43;5.50;;;9.80;99.90;;;;;;5030182;28;20042;-74
2023/04/02 01:50:18;;;;;;;7.65;5.47;;;9.80;99.90;;;;;;5031206;28;20052;-72
2023/04/02 01:52:54;;;;;;;6.90;5.50;;;10.00;99.90;;;;;;5069493;22;20040;-73
2023/04/02 01:55:31;;;;;;;8.07;5.60;;;10.00;99.90;;;;;;5036560;28;20123;-74
2023/04/02 01:58:01;;;;;;;8.73;5.78;;;10.20;99.90;;;;;;5036716;28;20083;-74
2023/04/02 02:00:33;;;;;;;8.55;5.88;;;10.20;99.90;;;;;;5070041;28;20044;-72
2023/04/02 02:03:05;;;;;;;7.53;5.68;;;10.30;99.90;;;;;;5031840;28;20080;-72
2023/04/02 02:05:32;;;;;;;7.40;5.22;;;10.30;99.90;;;;;;5062015;28;20060;-72
2023/04/02 02:08:04;;;;;;;6.05;5.07;;;10.40;99.90;;;;;;5053930;28;20054;-76
2023/04/02 02:10:38;;;;;;;7.85;5.68;;;10.50;99.90;;;;;;5028638;28;20113;-75
2023/04/02 02:13:13;;;;;;;8.57;6.03;;;10.50;99.90;;;;;;5071879;28;20131;-72
2023/04/02 02:15:41;;;;;;;12.10;6.13;;;10.40;99.90;;;;;;5043666;28;20106;-73
2023/04/02 02:18:11;;;;;;;9.93;5.53;;;10.50;99.90;;;;;;5054119;28;20173;-74
2023/04/02 02:20:40;;;;;;;9.65;5.20;;;10.50;99.90;;;;;;5045921;28;20043;-76
2023/04/02 02:23:11;;;;;;;6.82;5.57;;;10.50;99.90;;;;;;5076456;22;20045;-76
2023/04/02 02:25:39;;;;;;;9.82;5.22;;;10.50;99.90;;;;;;5028918;28;20144;-72
2023/04/02 02:28:18;;;;;;;7.65;5.97;;;10.30;99.90;;;;;;5044515;28;20492;-73
2023/04/02 02:30:51;;;;;;;7.82;5.40;;;10.40;99.90;;;;;;5047219;28;20127;-72
2023/04/02 02:34:00;;;;;;;7.05;5.70;;;10.40;99.90;;;;;;5045934;28;20032;-75
2023/04/02 02:36:28;;;;;;;7.35;5.70;;;10.30;99.90;;;;;;4991147;28;20053;-76
2023/04/02 02:39:33;;;;;;;9.02;6.00;;;10.10;99.90;;;;;;5022162;28;20036;-73
2023/04/02 02:42:07;;;;;;;8.65;5.57;;;10.30;99.90;;;;;;5013727;28;20393;-76
2023/04/02 02:44:38;;;;;;;10.18;5.75;;;10.30;99.90;;;;;;5035017;28;20041;-76
2023/04/02 02:47:11;;;;;;;7.60;5.85;;;10.40;99.90;;;;;;5025949;28;20033;-75
2023/04/02 02:49:53;;;;;;;9.13;6.43;;;10.20;99.90;;;;;;5043273;28;20041;-76
2023/04/02 02:52:26;;;;;;;9.88;5.97;;;10.20;99.90;;;;;;5059306;28;20037;-73
2023/04/02 02:55:05;;;;;;;8.35;5.90;;;10.20;99.90;;;;;;5047988;28;20496;-72
2023/04/02 02:57:40;;;;;;;7.68;5.80;;;10.20;99.90;;;;;;5025265;28;20522;-72
2023/04/02 03:00:14;;;;;;;8.95;5.90;;;10.10;99.90;;;;;;5045974;28;20143;-74
2023/04/02 03:02:43;;;;;;;9.73;5.90;;;10.20;99.90;;;;;;5060470;28;20449;-75
2023/04/02 03:05:23;;;;;;;9.98;6.70;;;10.10;99.90;;;;;;5045644;28;20132;-74
2023/04/02 03:07:57;;;;;;;6.85;5.70;;;10.10;99.90;;;;;;5045609;28;20140;-75
2023/04/02 03:10:42;;;;;;;9.20;6.32;;;9.90;99.90;;;;;;5027420;28;20049;-75
2023/04/02 03:13:18;;;;;;;8.68;6.30;;;9.90;99.90;;;;;;5041147;28;20037;-74
2023/04/02 03:16:16;;;;;;;9.15;6.38;;;9.80;99.90;;;;;;5050562;28;20526;-75
2023/04/02 03:19:16;;;;;;;10.25;6.10;;;9.80;99.90;;;;;;5029299;28;20072;-73
2023/04/02 03:22:03;;;;;;;7.33;5.97;;;9.70;99.90;;;;;;5019956;28;20063;-75
2023/04/02 03:24:41;;;;;;;9.82;6.10;;;9.70;99.90;;;;;;5044185;28;20845;-73
2023/04/02 03:27:15;;;;;;;7.30;5.90;;;9.70;99.90;;;;;;5025273;28;20473;-73
2023/04/02 03:30:18;;;;;;;9.25;5.95;;;9.50;99.90;;;;;;5043864;28;20487;-76
2023/04/02 03:32:56;;;;;;;9.77;6.53;;;9.50;99.90;;;;;;5035249;28;20118;-76
2023/04/02 03:35:40;;;;;;;10.50;6.20;;;9.40;99.90;;;;;;5060648;28;20451;-74
2023/04/02 03:38:19;;;;;;;7.70;6.28;;;9.30;99.90;;;;;;5024102;28;20411;-75
2023/04/02 03:41:19;;;;;;;8.98;6.00;;;9.20;99.90;;;;;;5026220;28;20037;-72
2023/04/02 03:43:51;;;;;;;11.30;6.88;;;9.40;99.90;;;;;;4995976;28;20041;-73
2023/04/02 03:46:29;;;;;;;8.30;5.80;;;9.60;99.90;;;;;;5059041;28;20044;-73
2023/04/02 03:48:59;;;;;;;8.95;6.60;;;9.70;99.90;;;;;;5040468;28;20184;-72
2023/04/02 03:51:39;;;;;;;;;;;9.70;99.90;;;;;;5026002;28;20056;-75
2023/04/02 03:54:14;;;;;;;8.80;6.32;;;9.70;99.90;;;;;;5027562;28;19943;-74
2023/04/02 03:56:46;;;;;;;9.13;7.05;;;9.70;99.90;;;;;;5055323;28;20128;-75
2023/04/02 03:59:42;;;;;;;10.73;6.55;;;9.80;99.90;;;;;;5043499;28;20040;-74
2023/04/02 04:02:19;;;;;;;8.57;6.50;;;9.80;99.90;;;;;;5039872;28;20045;-74
2023/04/02 04:04:49;;;;;;;9.98;6.47;;;9.90;99.90;;;;;;5044665;28;20060;-73
2023/04/02 04:07:36;;;;;;;9.95;6.47;;;9.90;99.90;;;;;;5024445;28;20048;-74
2023/04/02 04:10:06;;;;;;;8.68;6.65;;;9.90;99.90;;;;;;5030028;28;20051;-74
2023/04/02 04:12:39;;;;;;;12.07;7.03;;;9.70;99.90;;;;;;5025791;28;20059;-73
2023/04/02 04:15:29;;;;;;;7.68;6.57;;;9.70;99.90;;;;;;5059805;28;20059;-75
2023/04/02 04:18:23;;;;;;;9.82;6.93;;;9.70;99.90;;;;;;5025669;28;20049;-72
2023/04/02 04:20:57;;;;;;;12.45;7.32;;;9.70;99.90;;;;;;5026345;28;20068;-73
2023/04/02 04:23:30;;;;;;;10.45;7.03;;;9.70;99.90;;;;;;5044793;28;20052;-71
2023/04/02 04:26:23;;;;;;;11.45;6.78;;;9.80;99.90;;;;;;5037778;28;20119;-74
2023/04/02 04:29:24;;;;;;;11.60;7.35;;;9.70;99.90;;;;;;5065004;28;20037;-75
2023/04/02 04:31:54;;;;;;;11.30;7.07;;;9.70;99.90;;;;;;5040496;28;20048;-72
2023/04/02 04:34:41;;;;;;;7.95;6.53;;;9.80;99.90;;;;;;5043121;28;20056;-74
2023/04/02 04:37:20;;;;;;;10.65;7.30;;;9.90;99.90;;;;;;5043614;28;20044;-74
2023/04/02 04:40:04;;;;;;;9.30;7.30;;;10.00;99.90;;;;;;5027798;28;20040;-71
2023/04/02 04:42:34;;;;;;;8.13;6.70;;;9.90;99.90;;;;;;5062840;23;20059;-75
2023/04/02 04:45:15;;;;;;;9.82;6.63;;;9.90;99.90;;;;;;5025801;28;20028;-71
2023/04/02 04:48:19;;;;;;;9.45;6.55;;;10.00;99.90;;;;;;5039985;28;20032;-71
2023/04/02 04:51:24;;;;;;;9.68;6.90;;;9.90;99.90;;;;;;5038780;28;20082;-73
2023/04/02 04:54:00;;;;;;;9.77;7.00;;;10.00;99.90;;;;;;5025633;28;20029;-72
2023/04/02 04:56:29;;;;;;;9.35;7.10;;;10.10;99.90;;;;;;5023137;28;20052;-73
2023/04/02 04:59:00;;;;;;;13.43;7.57;;;10.00;99.90;;;;;;5059230;28;20693;-76
2023/04/02 05:01:39;;;;;;;10.48;7.53;;;9.80;99.90;;;;;;5022238;28;20041;-75
2023/04/02 05:04:22;;;;;;;11.05;7.47;;;9.90;99.90;;;;;;5023839;28;20040;-74
2023/04/02 05:07:20;;;;;;;13.23;8.13;;;10.00;99.90;;;;;;5023312;28;20051;-73
2023/04/02 05:10:10;;;;;;;11.02;7.75;;;10.10;99.90;;;;;;5024448;28;20051;-74
2023/04/02 05:13:17;;;;;;;16.67;8.07;;;10.10;99.90;;;;;;5040276;28;20049;-74
2023/04/02 05:16:02;;;;;;;11.98;7.72;;;10.20;99.90;;;;;;5013616;28;20056;-74
2023/04/02 05:18:54;;;;;;;13.85;8.00;;;10.10;99.90;;;;;;5024966;28;20049;-77
2023/04/02 05:21:44;;;;;;;14.57;9.18;;;10.20;99.90;;;;;;5020842;28;20064;-76
2023/04/02 05:24:46;;;;;;;13.35;10.43;;;10.10;99.90;;;;;;5026542;28;20041;-77
2023/04/02 05:27:27;;;;;;;16.00;9.27;;;9.80;99.90;;;;;;5032972;28;20134;-73
2023/04/02 05:30:26;;;;;;;14.23;9.40;;;10.00;99.90;;;;;;5024632;28;20056;-75
2023/04/02 05:32:58;;;;;;;13.88;8.70;;;10.30;99.90;;;;;;5026468;28;20048;-71
2023/04/02 05:35:36;;;;;;;12.57;7.82;;;10.30;99.90;;;;;;5044921;28;20041;-73
2023/04/02 05:38:05;;;;;;;11.77;8.35;;;10.20;99.90;;;;;;5061732;28;20068;-73
2023/04/02 05:40:38;;;;;;;17.02;8.85;;;9.90;99.90;;;;;;5029079;28;20044;-73
2023/04/02 05:43:12;;;;;;;12.80;8.35;;;9.90;99.90;;;;;;5027665;28;20083;-73
2023/04/02 05:45:45;;;;;;;12.13;8.77;;;9.90;99.90;;;;;;5029562;28;20032;-76
2023/04/02 05:48:24;;;;;;;11.93;8.30;;;9.90;99.90;;;;;;5028094;28;20045;-77
2023/04/02 05:50:54;;;;;;;15.10;8.93;;;10.00;99.90;;;;;;5037975;28;20055;-74
2023/04/02 05:53:35;;;;;;;10.30;8.20;;;10.20;99.90;;;;;;5025023;28;20546;-75
2023/04/02 05:56:16;;;;;;;14.90;9.10;;;10.50;99.90;;;;;;5024148;28;20040;-72
2023/04/02 05:59:33;;;;;;;12.55;8.00;;;10.70;99.90;;;;;;5026835;28;20048;-78
2023/04/02 06:02:16;;;;;;;13.85;8.75;;;10.60;99.90;;;;;;4939582;28;20109;-72
2023/04/02 06:05:30;;;;;;;15.77;8.35;;;10.60;99.90;;;;;;5055948;28;20080;-74
2023/04/02 06:08:12;;;;;;;12.07;7.97;;;10.70;99.90;;;;;;5032990;28;20124;-74
2023/04/02 06:10:52;;;;;;;10.65;7.60;;;10.70;99.90;;;;;;5043275;28;20381;-73
2023/04/02 06:13:20;;;;;;;9.43;7.20;;;10.70;99.90;;;;;;5007877;28;20029;-75
2023/04/02 06:15:50;;;;;;;;;;;10.80;99.90;;;;;;5022621;28;20139;-77
2023/04/02 06:18:29;;;;;;;16.65;9.30;;;10.90;99.90;;;;;;5023737;28;19920;-72
2023/04/02 06:20:57;;;;;;;49.15;27.20;;;11.20;99.90;;;;;;5057245;28;20438;-73
2023/04/02 06:23:52;;;;;;;12.13;9.95;;;11.50;99.90;;;;;;5060018;28;20040;-73
2023/04/02 06:26:49;;;;;;;12.85;9.20;;;11.40;99.90;;;;;;5025233;28;20045;-76
2023/04/02 06:29:30;;;;;;;9.60;7.57;;;11.40;99.90;;;;;;5035498;28;20057;-75
2023/04/02 06:32:00;;;;;;;8.88;7.03;;;11.50;99.90;;;;;;5025211;28;20037;-74
2023/04/02 06:34:30;;;;;;;;;;;11.40;99.90;;;;;;5042942;28;20041;-77
2023/04/02 06:37:09;;;;;;;12.00;8.10;;;11.70;99.90;;;;;;5026556;28;19956;-75
2023/04/02 06:39:39;;;;;;;10.27;7.80;;;11.90;99.90;;;;;;5039616;28;20133;-76
2023/04/02 06:42:26;;;;;;;11.38;7.82;;;12.00;99.90;;;;;;5056740;28;20052;-75
2023/04/02 06:44:56;;;;;;;11.32;7.25;;;12.00;99.90;;;;;;5056174;28;20556;-76
2023/04/02 06:47:35;;;;;;;12.50;7.18;;;12.50;99.90;;;;;;5026505;28;20055;-74
2023/04/02 06:50:13;;;;;;;10.57;7.30;;;12.50;99.90;;;;;;5039663;28;20404;-76
2023/04/02 06:53:04;;;;;;;10.57;6.90;;;12.50;99.90;;;;;;5026825;28;20068;-72
2023/04/02 06:56:28;;;;;;;32.60;20.13;;;12.30;99.90;;;;;;5023149;28;20094;-73
2023/04/02 06:58:58;;;;;;;99.72;60.35;;;12.70;99.90;;;;;;5025745;28;20052;-73
2023/04/02 07:01:34;;;;;;;23.05;17.35;;;13.20;99.90;;;;;;5027430;28;20053;-77
2023/04/02 07:04:05;;;;;;;11.85;9.63;;;13.40;99.90;;;;;;5025375;28;20051;-73
2023/04/02 07:06:33;;;;;;;14.82;9.25;;;13.10;99.90;;;;;;5041135;28;20116;-76
2023/04/02 07:09:00;;;;;;;56.92;32.45;;;13.10;99.90;;;;;;5024531;28;20047;-74
2023/04/02 07:11:35;;;;;;;59.38;37.17;;;13.50;99.90;;;;;;5026078;28;20138;-75
2023/04/02 07:14:09;;;;;;;34.60;23.00;;;13.80;99.90;;;;;;5061357;28;20033;-73
2023/04/02 07:16:36;;;;;;;17.92;12.77;;;13.90;99.90;;;;;;5020630;28;20049;-77
2023/04/02 07:19:04;;;;;;;18.58;9.90;;;13.80;99.90;;;;;;5026037;28;20055;-72
2023/04/02 07:21:34;;;;;;;16.80;10.57;;;13.70;99.90;;;;;;5024998;28;20040;-74
2023/04/02 07:24:02;;;;;;;11.88;8.05;;;13.90;99.90;;;;;;5023987;28;20045;-78
2023/04/02 07:26:32;;;;;;;12.20;7.65;;;13.90;99.90;;;;;;5027562;28;20052;-74
2023/04/02 07:29:00;;;;;;;12.82;7.47;;;13.50;99.90;;;;;;5026016;28;20102;-76
2023/04/02 07:31:27;;;;;;;13.02;8.65;;;13.60;99.90;;;;;;5059763;28;20554;-75
2023/04/02 07:33:59;;;;;;;13.20;8.18;;;13.70;99.90;;;;;;5028891;28;20045;-77
2023/04/02 07:36:29;;;;;;;12.23;7.78;;;14.00;99.90;;;;;;5021645;28;20095;-76
2023/04/02 07:38:57;;;;;;;12.07;7.50;;;14.10;99.90;;;;;;5039617;28;20132;-76
2023/04/02 07:41:25;;;;;;;11.48;7.63;;;14.30;99.90;;;;;;5023085;28;20428;-74
2023/04/02 07:43:55;;;;;;;11.43;6.90;;;14.40;99.90;;;;;;5025658;28;20048;-76
2023/04/02 07:46:25;;;;;;;11.45;7.38;;;14.40;99.90;;;;;;5057592;28;20623;-76
2023/04/02 07:49:00;;;;;;;14.03;7.17;;;14.70;99.90;;;;;;5043801;28;20119;-73
2023/04/02 07:51:27;;;;;;;33.15;20.42;;;14.70;99.70;;;;;;5022325;28;20135;-77
2023/04/02 07:53:54;;;;;;;159.00;99.88;;;14.80;99.60;;;;;;5054762;28;20051;-75
2023/04/02 07:56:36;;;;;;;24.85;19.65;;;14.90;99.20;;;;;;5053993;23;20056;-78
2023/04/02 07:59:18;;;;;;;14.15;8.90;;;14.70;98.70;;;;;;5049492;28;20392;-75
2023/04/02 08:01:48;;;;;;;29.20;15.85;;;14.80;99.70;;;;;;5042251;28;20020;-80
2023/04/02 08:04:20;;;;;;;88.80;53.75;;;14.70;99.00;;;;;;5048257;28;20070;-73
2023/04/02 08:06:49;;;;;;;35.67;23.45;;;14.70;99.00;;;;;;5047280;28;20095;-73
2023/04/02 08:09:16;;;;;;;18.17;12.77;;;14.80;98.90;;;;;;5049843;28;20037;-77
2023/04/02 08:11:46;;;;;;;23.48;12.13;;;14.90;98.80;;;;;;5031559;28;20106;-74
2023/04/02 08:14:15;;;;;;;10.30;7.25;;;15.20;98.90;;;;;;5057422;28;20044;-76
2023/04/02 08:16:51;;;;;;;15.77;10.15;;;14.70;98.20;;;;;;5021227;28;20056;-75
2023/04/02 08:19:23;;;;;;;11.32;7.13;;;14.70;98.50;;;;;;5041158;28;20044;-82
2023/04/02 08:21:54;;;;;;;15.85;7.57;;;14.80;98.40;;;;;;5026479;28;20045;-75
2023/04/02 08:24:24;;;;;;;14.75;8.25;;;14.80;98.70;;;;;;5046201;28;20045;-72
2023/04/02 08:26:53;;;;;;;9.57;6.15;;;15.10;98.10;;;;;;5048897;28;20044;-77
2023/04/02 08:29:21;;;;;;;10.73;6.68;;;15.20;97.10;;;;;;5047303;28;20124;-77
2023/04/02 08:31:51;;;;;;;11.93;6.40;;;15.60;97.20;;;;;;5049445;28;20071;-78
2023/04/02 08:34:22;;;;;;;14.23;6.22;;;15.80;95.80;;;;;;5045513;28;20033;-72
2023/04/02 08:36:54;;;;;;;11.75;6.25;;;16.10;95.10;;;;;;5024983;28;20052;-74
2023/04/02 08:39:28;;;;;;;11.05;6.20;;;16.10;94.60;;;;;;5024982;28;20422;-75
2023/04/02 08:42:25;;;;;;;123.25;14.75;;;16.30;93.40;;;;;;5021470;28;20029;-74
2023/04/02 08:45:04;;;;;;;48.80;8.23;;;16.60;93.90;;;;;;5047777;28;20051;-73
2023/04/02 08:48:01;;;;;;;41.75;8.05;;;16.60;93.00;;;;;;5020940;28;20049;-74
2023/04/02 08:50:38;;;;;;;85.53;11.73;;;16.40;93.10;;;;;;5007891;28;20045;-72
2023/04/02 08:53:24;;;;;;;11.43;5.85;;;16.40;92.20;;;;;;5024292;28;20033;-75
2023/04/02 08:55:58;;;;;;;31.02;8.73;;;15.90;93.10;;;;;;5045045;28;20409;-75
2023/04/02 08:58:52;;;;;;;109.78;13.70;;;16.40;94.50;;;;;;5027577;28;20041;-74
2023/04/02 09:02:10;;;;;;;16.17;5.57;;;17.00;92.70;;;;;;5026670;28;20048;-77
2023/04/02 09:04:40;;;;;;;16.00;5.03;;;16.80;90.90;;;;;;5009616;28;20124;-77
2023/04/02 09:07:21;;;;;;;6.85;4.30;;;16.90;90.60;;;;;;5026443;28;20046;-76
2023/04/02 09:10:14;;;;;;;7.80;5.18;;;17.30;90.70;;;;;;5036390;23;20102;-77
2023/04/02 09:15:52;;;;;;;56.28;35.55;;;17.20;89.30;;;;;;5047266;28;20040;-78
2023/04/02 09:18:22;;;;;;;28.02;17.35;;;17.20;89.30;;;;;;5051806;28;20404;-75
2023/04/02 09:20:52;;;;;;;10.07;5.38;;;17.30;88.60;;;;;;5039526;28;20110;-76
2023/04/02 09:23:23;;;;;;;12.35;3.92;;;17.50;85.90;;;;;;5045080;23;20457;-76
2023/04/02 09:25:52;;;;;;;27.00;13.77;;;17.50;83.50;;;;;;5031959;28;20095;-75
2023/04/02 09:28:31;;;;;;;23.65;14.35;;;17.20;84.80;;;;;;5043252;28;20053;-76
2023/04/02 09:31:28;;;;;;;33.90;21.98;;;16.50;84.70;;;;;;5047487;28;20124;-77
2023/04/02 09:33:58;;;;;;;50.65;31.52;;;16.50;85.10;;;;;;5047261;28;20635;-76
2023/04/02 09:36:50;;;;;;;9.35;6.30;;;16.80;89.40;;;;;;5048363;28;20037;-76
2023/04/02 09:39:41;;;;;;;9.63;4.63;;;16.60;84.50;;;;;;5030212;28;20052;-75
2023/04/02 09:42:36;;;;;;;8.68;3.80;;;16.70;87.00;;;;;;5049493;28;20072;-78
2023/04/02 09:45:54;;;;;;;9.32;4.13;;;16.70;84.90;;;;;;5052234;28;20353;-78
2023/04/02 09:49:02;;;;;;;7.93;3.85;;;16.70;84.70;;;;;;5030683;28;20156;-81
2023/04/02 09:51:41;;;;;;;7.78;3.10;;;16.80;84.90;;;;;;5022546;28;20459;-73
2023/04/02 09:54:15;;;;;;;10.73;3.78;;;17.00;88.00;;;;;;5024937;28;20078;-76
2023/04/02 09:57:06;;;;;;;6.57;3.60;;;17.10;85.10;;;;;;5020312;28;20674;-75
2023/04/02 09:59:42;;;;;;;7.78;3.13;;;17.20;84.90;;;;;;5020488;23;20092;-75
2023/04/02 10:02:36;;;;;;;5.80;3.28;;;17.40;83.80;;;;;;5045359;28;20120;-74
2023/04/02 10:05:26;;;;;;;5.47;3.00;;;17.70;82.80;;;;;;5048042;28;20044;-79
2023/04/02 10:08:38;;;;;;;7.53;3.38;;;17.80;79.70;;;;;;5020897;28;20056;-80
2023/04/02 10:11:36;;;;;;;8.98;3.03;;;18.10;81.60;;;;;;5018642;28;20462;-76
2023/04/02 10:14:41;;;;;;;12.20;8.43;;;18.70;78.40;;;;;;5021111;28;20084;-80
2023/04/02 10:17:26;;;;;;;7.50;3.80;;;17.80;77.80;;;;;;5031704;28;20039;-74
2023/04/02 10:20:05;;;;;;;15.13;8.23;;;17.40;78.70;;;;;;5048503;28;20408;-74
2023/04/02 10:22:39;;;;;;;6.00;3.30;;;18.00;79.70;;;;;;5017954;28;20041;-75
2023/04/02 10:25:47;;;;;;;13.52;8.70;;;17.80;76.90;;;;;;5025197;28;20068;-75
2023/04/02 10:28:59;;;;;;;38.60;27.48;;;17.90;78.20;;;;;;5017174;28;20041;-74
2023/04/02 10:31:39;;;;;;;31.92;21.67;;;18.80;77.40;;;;;;5012339;28;20059;-74
2023/04/02 10:34:20;;;;;;;24.92;15.88;;;19.40;75.60;;;;;;5053332;28;20048;-74
2023/04/02 10:37:02;;;;;;;55.40;37.22;;;19.50;73.00;;;;;;5051863;28;20053;-73
2023/04/02 10:39:52;;;;;;;11.38;5.72;;;19.80;72.60;;;;;;5007041;28;20049;-73
2023/04/02 10:42:49;;;;;;;8.80;4.57;;;19.50;70.80;;;;;;5050226;28;20033;-74
2023/04/02 10:45:30;;;;;;;22.15;17.45;;;19.40;70.80;;;;;;5005094;28;20049;-75
2023/04/02 10:48:19;;;;;;;22.60;15.13;;;19.80;71.00;;;;;;5034934;28;20045;-81
2023/04/02 10:52:22;;;;;;;7.03;4.18;;;20.20;70.10;;;;;;5080761;23;20056;-78
2023/04/02 10:56:05;;;;;;;10.02;3.65;;;20.10;68.50;;;;;;5005867;28;20029;-79
2023/04/02 10:59:15;;;;;;;7.57;3.65;;;20.10;69.40;;;;;;5056783;23;20119;-84
2023/04/02 11:01:48;;;;;;;9.00;3.70;;;20.20;68.20;;;;;;5005081;28;20049;-78
2023/04/02 11:04:47;;;;;;;5.55;3.05;;;19.80;69.80;;;;;;5015402;28;20413;-82
2023/04/02 11:07:31;;;;;;;6.45;3.50;;;20.00;69.00;;;;;;5013232;28;20049;-74
2023/04/02 11:10:19;;;;;;;8.52;3.22;;;19.90;69.40;;;;;;5029468;28;20057;-83
2023/04/02 11:12:57;;;;;;;7.13;2.67;;;20.40;68.20;;;;;;5006618;28;20037;-73
2023/04/02 11:15:26;;;;;;;7.03;2.95;;;20.30;68.30;;;;;;5027541;28;20044;-76
2023/04/02 11:18:02;;;;;;;6.43;3.05;;;20.30;68.20;;;;;;4999634;28;20042;-80
2023/04/02 11:20:55;;;;;;;5.63;2.78;;;20.00;67.70;;;;;;5030609;28;20057;-77
2023/04/02 11:23:34;;;;;;;5.70;2.70;;;20.00;67.90;;;;;;5032607;28;20508;-76
2023/04/02 11:26:40;;;;;;;6.63;3.33;;;20.40;67.90;;;;;;5016453;28;20120;-77
2023/04/02 11:29:27;;;;;;;4.50;2.55;;;20.60;67.50;;;;;;5028383;28;20049;-79
2023/04/02 11:32:19;;;;;;;6.15;2.70;;;20.50;66.60;;;;;;5018766;28;20160;-72
2023/04/02 11:34:47;;;;;;;7.32;2.75;;;20.70;64.00;;;;;;5009621;28;20042;-74
2023/04/02 11:37:43;;;;;;;6.10;2.53;;;20.80;64.00;;;;;;5028824;28;20371;-76
2023/04/02 11:40:14;;;;;;;4.95;2.28;;;20.40;66.00;;;;;;5018910;28;20057;-77
2023/04/02 11:42:48;;;;;;;85.13;60.50;;;20.70;62.90;;;;;;5019238;28;20042;-76
2023/04/02 11:45:33;;;;;;;73.63;50.10;;;21.20;63.50;;;;;;5013053;28;20433;-78
2023/04/02 11:48:34;;;;;;;7.13;5.05;;;21.40;62.30;;;;;;5003812;28;20068;-76
2023/04/02 11:51:37;;;;;;;5.07;3.00;;;21.40;60.70;;;;;;4991696;28;20379;-79
2023/04/02 11:54:20;;;;;;;6.72;2.63;;;22.00;61.20;;;;;;4933749;28;20502;-75
2023/04/02 11:57:03;;;;;;;6.38;2.30;;;22.30;60.90;;;;;;4983022;28;20049;-77
2023/04/02 11:59:55;;;;;;;5.88;2.30;;;22.80;58.40;;;;;;4959059;28;20589;-75
2023/04/02 12:02:45;;;;;;;4.57;1.85;;;23.00;58.90;;;;;;4973852;28;20390;-71
2023/04/02 12:05:23;;;;;;;4.53;2.08;;;22.60;57.00;;;;;;4984770;28;20050;-75
2023/04/02 12:07:53;;;;;;;5.93;2.13;;;22.00;57.70;;;;;;4990306;28;20174;-72
2023/04/02 12:10:22;;;;;;;4.13;1.80;;;22.30;58.80;;;;;;4974054;28;20398;-74
2023/04/02 12:12:50;;;;;;;4.63;1.70;;;22.30;58.20;;;;;;4990411;28;20085;-73
2023/04/02 12:15:43;;;;;;;13.38;9.23;;;22.10;57.20;;;;;;4992205;28;20046;-78
2023/04/02 12:18:23;;;;;;;27.20;24.25;;;22.00;59.10;;;;;;4989525;28;20145;-75
2023/04/02 12:20:55;;;;;;;55.58;46.42;;;22.00;57.40;;;;;;4991041;28;20058;-76
2023/04/02 12:23:30;;;;;;;161.25;105.53;;;22.10;56.80;;;;;;4990531;28;20069;-73
2023/04/02 12:26:22;;;;;;;16.13;11.85;;;21.80;56.90;;;;;;4975648;28;20452;-72
2023/04/02 12:28:50;;;;;;;7.63;4.05;;;21.30;57.00;;;;;;5024460;22;20086;-72
2023/04/02 12:31:26;;;;;;;12.52;6.53;;;21.10;57.10;;;;;;5021548;28;20488;-75
2023/04/02 12:33:58;;;;;;;4.32;1.90;;;22.20;56.40;;;;;;5030886;28;20231;-80
2023/04/02 12:36:26;;;;;;;4.30;1.70;;;25.10;50.70;;;;;;5016978;28;20149;-75
2023/04/02 12:38:57;;;;;;;3.00;1.60;;;26.20;49.10;;;;;;5030049;28;20049;-85
2023/04/02 12:41:35;;;;;;;3.42;1.50;;;28.00;47.00;;;;;;5029863;28;20048;-74
2023/04/02 12:44:10;;;;;;;3.05;1.45;;;28.50;45.50;;;;;;5016063;28;20052;-86
2023/04/02 12:46:39;;;;;;;3.60;1.27;;;27.40;45.40;;;;;;5013745;28;20041;-81
2023/04/02 12:49:41;;;;;;;3.05;1.20;;;27.20;45.40;;;;;;5019825;28;20046;-72
2023/04/02 12:52:20;;;;;;;3.97;1.73;;;26.90;45.80;;;;;;5004502;28;20112;-74
2023/04/02 12:54:57;;;;;;;3.63;1.40;;;28.30;44.80;;;;;;5029500;28;20453;-78
2023/04/02 12:57:30;;;;;;;2.75;1.45;;;28.40;43.40;;;;;;4991008;28;20661;-75
2023/04/02 13:00:24;;;;;;;2.33;1.25;;;28.20;43.50;;;;;;4997863;28;20045;-78
2023/04/02 13:03:04;;;;;;;2.75;1.20;;;28.70;42.60;;;;;;5007041;28;20505;-74
2023/04/02 13:05:55;;;;;;;5.10;1.58;;;28.10;43.00;;;;;;5005543;28;20083;-82
2023/04/02 13:08:28;;;;;;;3.03;1.20;;;24.90;46.90;;;;;;5012322;28;20049;-73
2023/04/02 13:11:05;;;;;;;2.42;1.20;;;23.10;49.00;;;;;;5036876;28;20049;-76
2023/04/02 13:13:37;;;;;;;4.22;1.55;;;23.70;47.50;;;;;;5011714;28;20033;-80
2023/04/02 13:16:10;;;;;;;2.35;1.25;;;22.30;49.40;;;;;;5026147;28;20060;-75
2023/04/02 13:18:49;;;;;;;3.95;1.45;;;22.10;50.20;;;;;;4995409;28;20042;-74
2023/04/02 13:21:30;;;;;;;25.73;18.08;;;21.40;51.50;;;;;;5012911;28;20045;-80
2023/04/02 13:24:03;;;;;;;34.95;24.15;;;21.00;55.40;;;;;;5006918;28;20057;-81
2023/04/02 13:26:32;;;;;;;5.20;2.63;;;20.50;54.20;;;;;;4999077;28;20094;-81
2023/04/02 13:29:08;;;;;;;14.75;10.75;;;20.30;56.60;;;;;;4988211;28;20099;-75
2023/04/02 13:31:36;;;;;;;34.58;23.80;;;20.30;58.60;;;;;;5017544;28;20053;-78
2023/04/02 13:34:04;;;;;;;8.80;4.97;;;20.60;58.80;;;;;;5021244;28;20103;-81
2023/04/02 13:36:34;;;;;;;5.55;2.22;;;21.90;56.50;;;;;;5030163;28;20045;-79
2023/04/02 13:39:05;;;;;;;4.00;2.35;;;24.50;52.00;;;;;;5029893;28;20045;-74
2023/04/02 13:41:44;;;;;;;3.25;1.50;;;26.20;50.10;;;;;;4985588;28;20124;-73
2023/04/02 13:44:22;;;;;;;4.15;1.60;;;27.00;48.00;;;;;;4999700;28;20441;-81
2023/04/02 13:46:50;;;;;;;4.72;1.58;;;25.10;48.60;;;;;;5005561;28;20064;-79
2023/04/02 13:49:19;;;;;;;3.42;1.30;;;25.60;49.20;;;;;;5018333;28;20051;-74
2023/04/02 13:51:56;;;;;;;2.75;1.27;;;27.40;46.30;;;;;;5004651;28;20041;-75
2023/04/02 13:54:45;;;;;;;3.20;1.40;;;27.40;46.70;;;;;;5013818;28;20049;-75